Airfield :







YOU CAN JOIN US ON...

 
LOGIN :

Register | Disclaimer

   EN    FR    IT 

 









Legend :    VFR   Marginal VFR   IFR   Intensive IFR   Very Intensive IFR
Visi :
Ceiling :
>= 8 km
>= 3000ft
5 to 8 km
1000 to 3000 ft
1500m to 5 km
500 to 1000 ft
800 to 1500m
200 to 500 ft
< 800m
< 200 ft
Symbols :   Thunderstorms  Fog  Heavy snow  Heavy precipitations  Wind > 20 kt







- Airport Elevation : 90 ft
- IATA code : YHU


CYHU - Montréal Saint-Hubert

CURRENT METAR :
  • 251300Z AUTO VRB02KT 9SM OVC010 06/03 A2996 RMK SLP147

EXPIRED METARs :
  • 251201Z AUTO 05003KT 9SM OVC012 05/03 A2996 RMK SLP148
  • 251134Z AUTO VRB02KT 9SM -RA OVC014 04/03 A2996 RMK SLP147
  • 251117Z AUTO 01003KT 9SM -RA OVC016 04/03 A2996 RMK SLP147

TAF TAF CYHU
Valid from the 25 at 12:00 until the 26 at 12:00 UTC


251142Z 2512/2612 04005KT P6SM BKN015 OVC040
TEMPO 2512/2514 4SM -DZ BR BKN008 OVC015
FM251400 VRB03KT 6SM -DZ BR BKN012 OVC025
TEMPO 2514/2516 P6SM NSW SCT012 BKN025
FM251600 24008KT P6SM BKN030
TEMPO 2516/2518 BKN020
FM252100 25006KT P6SM SCT030 BKN120
FM260300 07005KT P6SM SCT120 BKN240
FM261000 05012KT P6SM BKN110 OVC220 RMK FCST BASED ON AUTO OBS. NXT FCST BY 251800Z
CZUL FIR / North America



MET'MAP, your aeronautical weather chart ! - Copyright ORBIFLY December 2007 - Disclaimer

ORBIFLY MET'MAP TEAM :

Programming & Development : Alexandra Zaïnal
Concept & Development : Baudouin d'Aumeries
Co-Development & Prog : Marc-Olivier Méhu
Technical & hardware support : Manuel Goepfert

Contact : metmap@orbifly.com




SOURCES & CREDITS :

   NOAA